Time;durP1;ratioP1;P1;durP2;ratioP2;P2;SDS_P1;SDS_P2;PMS_P1;PMS_P2;Temp;Humidity;BMP_temperature;BMP_pressure;BME280_temperature;BME280_humidity;BME280_pressure;Samples;Min_cycle;Max_cycle;Signal;HPM_P1;HPM_P2
2023/02/16 00:00:18;;;;;;;38.00;32.05;;;;;;;;;;516455;28;1583;-72
2023/02/16 00:00:34;;;;;;;36.92;31.70;;;;;;;;;;520070;28;1259;-71
2023/02/16 00:00:49;;;;;;;36.45;31.42;;;;;;;;;;520431;28;1276;-71
2023/02/16 00:01:25;;;;;;;36.43;31.50;;;;;;;;;;518993;28;1213;-71
2023/02/16 00:01:41;;;;;;;35.67;31.17;;;;;;;;;;516855;28;1307;-70
2023/02/16 00:01:57;;;;;;;36.23;31.23;;;;;;;;;;516411;28;1333;-71
2023/02/16 00:02:12;;;;;;;37.13;31.77;;;;;;;;;;516266;28;1203;-71
2023/02/16 00:02:27;;;;;;;38.47;32.53;;;;;;;;;;515413;28;1307;-71
2023/02/16 00:02:42;;;;;;;41.17;33.10;;;;;;;;;;517095;28;1263;-71
2023/02/16 00:02:58;;;;;;;39.83;32.78;;;;;;;;;;517075;28;1325;-71
2023/02/16 00:03:19;;;;;;;37.73;32.23;;;;;;;;;;516582;28;1246;-70
2023/02/16 00:03:34;;;;;;;37.10;32.35;;;;;;;;;;520397;28;1476;-71
2023/02/16 00:03:51;;;;;;;37.20;32.17;;;;;;;;;;518325;28;1339;-71
2023/02/16 00:04:32;;;;;;;37.55;32.13;;;;;;;;;;517812;28;1463;-73
2023/02/16 00:04:48;;;;;;;36.60;31.60;;;;;;;;;;514160;28;1272;-71
2023/02/16 00:05:17;;;;;;;36.67;31.33;;;;;;;;;;519176;28;1207;-71
2023/02/16 00:05:33;;;;;;;36.00;31.13;;;;;;;;;;520176;28;1490;-70
2023/02/16 00:05:49;;;;;;;36.85;32.08;;;;;;;;;;522389;28;1231;-71
2023/02/16 00:06:05;;;;;;;36.15;31.27;;;;;;;;;;519463;28;1353;-71
2023/02/16 00:06:21;;;;;;;35.95;31.15;;;;;;;;;;518938;28;1204;-70
2023/02/16 00:06:36;;;;;;;34.97;30.57;;;;;;;;;;519830;28;1243;-71
2023/02/16 00:06:52;;;;;;;35.13;31.05;;;;;;;;;;520163;28;1324;-72
2023/02/16 00:07:08;;;;;;;36.92;32.05;;;;;;;;;;519649;28;1191;-71
2023/02/16 00:07:23;;;;;;;37.80;32.22;;;;;;;;;;522435;28;1393;-71
2023/02/16 00:07:38;;;;;;;36.57;31.73;;;;;;;;;;521206;28;1195;-71
2023/02/16 00:07:55;;;;;;;36.90;32.00;;;;;;;;;;518678;28;1164;-71
2023/02/16 00:08:10;;;;;;;37.85;32.25;;;;;;;;;;521153;28;1258;-71
2023/02/16 00:08:26;;;;;;;37.90;31.67;;;;;;;;;;520564;28;1211;-71
2023/02/16 00:08:46;;;;;;;38.80;31.80;;;;;;;;;;518900;28;1361;-71
2023/02/16 00:09:02;;;;;;;37.92;32.38;;;;;;;;;;521340;28;1342;-71
2023/02/16 00:09:18;;;;;;;38.17;32.85;;;;;;;;;;521932;28;1368;-71
2023/02/16 00:09:33;;;;;;;38.95;32.90;;;;;;;;;;522236;28;1502;-71
2023/02/16 00:09:48;;;;;;;39.10;32.47;;;;;;;;;;517403;28;1325;-71
2023/02/16 00:10:04;;;;;;;37.10;31.20;;;;;;;;;;517155;28;1355;-71
2023/02/16 00:10:20;;;;;;;34.95;30.45;;;;;;;;;;515802;28;1393;-71
2023/02/16 00:10:37;;;;;;;36.83;31.88;;;;;;;;;;516182;28;1383;-71
2023/02/16 00:14:06;;;;;;;38.00;32.30;;;;;;;;;;526486;28;1054;-71
2023/02/16 00:14:24;;;;;;;37.53;32.20;;;;;;;;;;527149;27;1006;-68
2023/02/16 00:14:40;;;;;;;37.03;31.73;;;;;;;;;;523262;28;1306;-69
2023/02/16 00:14:55;;;;;;;36.90;31.83;;;;;;;;;;523482;28;1433;-69
2023/02/16 00:15:18;;;;;;;37.83;32.25;;;;;;;;;;520068;28;1531;-69
2023/02/16 00:15:34;;;;;;;38.70;32.33;;;;;;;;;;517786;28;1919;-70
2023/02/16 00:15:49;;;;;;;37.78;31.58;;;;;;;;;;516196;28;1185;-70
2023/02/16 00:16:04;;;;;;;36.33;31.60;;;;;;;;;;513527;28;1373;-70
2023/02/16 00:16:22;;;;;;;37.03;31.60;;;;;;;;;;513873;28;1324;-69
2023/02/16 00:16:38;;;;;;;39.38;32.63;;;;;;;;;;513680;28;1434;-70
2023/02/16 00:16:57;;;;;;;38.95;32.83;;;;;;;;;;513926;28;1262;-70
2023/02/16 00:17:13;;;;;;;36.72;31.20;;;;;;;;;;515230;28;1063;-70
2023/02/16 00:17:28;;;;;;;37.40;31.33;;;;;;;;;;516311;28;1350;-70
2023/02/16 00:17:43;;;;;;;38.60;32.03;;;;;;;;;;519063;28;1211;-70
2023/02/16 00:18:01;;;;;;;38.47;32.23;;;;;;;;;;521523;28;1211;-70
2023/02/16 00:18:19;;;;;;;38.67;32.80;;;;;;;;;;521968;28;1370;-70
2023/02/16 00:18:34;;;;;;;39.83;33.40;;;;;;;;;;523011;28;1470;-70
2023/02/16 00:18:50;;;;;;;39.87;33.17;;;;;;;;;;521901;28;1313;-70
2023/02/16 00:19:23;;;;;;;39.22;32.45;;;;;;;;;;522556;28;1393;-70
2023/02/16 00:19:40;;;;;;;43.88;35.22;;;;;;;;;;520207;28;915;-70
2023/02/16 00:19:56;;;;;;;41.75;33.90;;;;;;;;;;520819;28;1521;-71
2023/02/16 00:20:15;;;;;;;38.25;32.03;;;;;;;;;;519638;28;1391;-70
2023/02/16 00:20:31;;;;;;;42.28;34.70;;;;;;;;;;521002;28;1340;-70
2023/02/16 00:20:47;;;;;;;43.08;35.50;;;;;;;;;;519407;28;1175;-70
2023/02/16 00:21:03;;;;;;;42.53;34.83;;;;;;;;;;520866;28;1467;-72
2023/02/16 00:21:19;;;;;;;41.90;34.40;;;;;;;;;;520946;28;1335;-70
2023/02/16 00:21:34;;;;;;;39.85;33.83;;;;;;;;;;519662;28;1267;-71
2023/02/16 00:21:53;;;;;;;39.53;33.47;;;;;;;;;;517984;28;1158;-70
2023/02/16 00:22:09;;;;;;;38.83;32.85;;;;;;;;;;518762;28;1252;-70
2023/02/16 00:22:25;;;;;;;40.67;33.20;;;;;;;;;;519576;28;1514;-70
2023/02/16 00:22:40;;;;;;;41.80;33.63;;;;;;;;;;518596;28;1275;-71
2023/02/16 00:22:56;;;;;;;42.07;34.53;;;;;;;;;;522648;28;1348;-71
2023/02/16 00:23:11;;;;;;;41.75;34.97;;;;;;;;;;518219;28;1232;-73
2023/02/16 00:23:26;;;;;;;41.87;34.53;;;;;;;;;;519215;28;1240;-73
2023/02/16 00:23:42;;;;;;;42.00;34.08;;;;;;;;;;517804;28;1042;-73
2023/02/16 00:23:57;;;;;;;39.60;33.30;;;;;;;;;;517495;28;1182;-72
2023/02/16 00:24:13;;;;;;;39.05;33.45;;;;;;;;;;519733;28;1208;-72
2023/02/16 00:24:29;;;;;;;41.78;34.28;;;;;;;;;;518208;28;1367;-70
2023/02/16 00:24:45;;;;;;;42.17;34.15;;;;;;;;;;518674;28;1343;-71
2023/02/16 00:25:00;;;;;;;43.70;35.10;;;;;;;;;;520026;28;1363;-71
2023/02/16 00:25:15;;;;;;;43.77;34.77;;;;;;;;;;517852;28;1421;-71
2023/02/16 00:25:30;;;;;;;42.85;34.25;;;;;;;;;;518032;28;1235;-71
2023/02/16 00:25:46;;;;;;;42.50;34.57;;;;;;;;;;515258;28;1299;-71
2023/02/16 00:26:02;;;;;;;40.97;33.93;;;;;;;;;;515734;28;1260;-71
2023/02/16 00:26:21;;;;;;;41.13;33.80;;;;;;;;;;518921;28;1348;-71
2023/02/16 00:26:36;;;;;;;40.38;33.35;;;;;;;;;;517256;28;1487;-71
2023/02/16 00:26:52;;;;;;;37.40;31.90;;;;;;;;;;521711;28;1302;-70
2023/02/16 00:27:17;;;;;;;38.63;32.60;;;;;;;;;;521831;28;1345;-71
2023/02/16 00:27:33;;;;;;;42.42;34.28;;;;;;;;;;523364;28;1168;-71
2023/02/16 00:27:49;;;;;;;42.88;34.03;;;;;;;;;;520972;28;1380;-71
2023/02/16 00:28:11;;;;;;;42.78;34.30;;;;;;;;;;517601;28;1327;-71
2023/02/16 00:28:27;;;;;;;40.65;33.72;;;;;;;;;;518195;28;1421;-71
2023/02/16 00:28:43;;;;;;;38.83;32.63;;;;;;;;;;519476;28;1325;-71
2023/02/16 00:28:59;;;;;;;39.90;32.65;;;;;;;;;;519929;28;1253;-71
2023/02/16 00:29:26;;;;;;;43.03;33.80;;;;;;;;;;520017;28;1223;-70
2023/02/16 00:29:42;;;;;;;40.58;33.92;;;;;;;;;;519435;28;1149;-71
2023/02/16 00:29:57;;;;;;;39.83;33.65;;;;;;;;;;520925;28;1244;-72
2023/02/16 00:30:20;;;;;;;40.27;33.77;;;;;;;;;;520254;28;1398;-71
2023/02/16 00:30:36;;;;;;;39.00;32.97;;;;;;;;;;521851;28;1165;-71
2023/02/16 00:30:51;;;;;;;40.45;33.63;;;;;;;;;;521896;28;1235;-71
2023/02/16 00:31:20;;;;;;;39.53;33.00;;;;;;;;;;521286;28;1239;-71
2023/02/16 00:31:35;;;;;;;41.72;34.50;;;;;;;;;;524200;28;1286;-71
2023/02/16 00:31:52;;;;;;;42.13;34.60;;;;;;;;;;523463;28;1266;-71
2023/02/16 00:32:11;;;;;;;41.70;34.08;;;;;;;;;;522007;28;1290;-71
2023/02/16 00:32:26;;;;;;;41.28;33.58;;;;;;;;;;519939;28;1386;-71
2023/02/16 00:32:42;;;;;;;41.53;33.73;;;;;;;;;;520100;28;1164;-71
2023/02/16 00:32:57;;;;;;;41.88;33.95;;;;;;;;;;519424;28;1314;-71
2023/02/16 00:33:17;;;;;;;40.63;33.70;;;;;;;;;;517331;28;1305;-71
2023/02/16 00:33:32;;;;;;;39.47;33.40;;;;;;;;;;518513;28;1235;-71
2023/02/16 00:33:48;;;;;;;41.03;34.00;;;;;;;;;;519443;28;1179;-71
2023/02/16 00:34:19;;;;;;;41.35;33.92;;;;;;;;;;518669;28;1353;-71
2023/02/16 00:34:41;;;;;;;40.45;33.63;;;;;;;;;;516137;28;1335;-71
2023/02/16 00:34:57;;;;;;;41.25;33.45;;;;;;;;;;516497;28;1445;-70
2023/02/16 00:35:17;;;;;;;41.00;33.50;;;;;;;;;;515404;28;1385;-70
2023/02/16 00:35:33;;;;;;;40.05;33.63;;;;;;;;;;516128;28;1970;-71
2023/02/16 00:35:48;;;;;;;41.33;34.03;;;;;;;;;;518461;28;1146;-71
2023/02/16 00:36:04;;;;;;;41.38;34.30;;;;;;;;;;518637;28;1240;-71
2023/02/16 00:36:20;;;;;;;41.13;34.30;;;;;;;;;;518534;28;1311;-70
2023/02/16 00:36:35;;;;;;;43.05;34.78;;;;;;;;;;517745;28;1277;-71
2023/02/16 00:36:50;;;;;;;43.53;35.40;;;;;;;;;;519072;28;1304;-70
2023/02/16 00:37:10;;;;;;;41.80;34.73;;;;;;;;;;517724;28;1212;-71
2023/02/16 00:37:26;;;;;;;41.85;34.25;;;;;;;;;;517759;28;1280;-70
2023/02/16 00:37:41;;;;;;;42.05;34.38;;;;;;;;;;518460;28;1209;-71
2023/02/16 00:37:57;;;;;;;41.37;34.20;;;;;;;;;;520110;28;1238;-70
2023/02/16 00:38:12;;;;;;;40.97;33.97;;;;;;;;;;519407;28;1326;-71
2023/02/16 00:38:27;;;;;;;41.25;33.92;;;;;;;;;;521425;28;1446;-70
2023/02/16 00:38:43;;;;;;;42.97;34.50;;;;;;;;;;517479;28;1227;-71
2023/02/16 00:38:58;;;;;;;43.20;35.25;;;;;;;;;;517916;28;1561;-70
2023/02/16 00:39:14;;;;;;;40.50;33.87;;;;;;;;;;516126;28;1517;-71
2023/02/16 00:39:29;;;;;;;38.55;32.42;;;;;;;;;;518109;28;1385;-70
2023/02/16 00:39:45;;;;;;;41.93;34.47;;;;;;;;;;516194;28;1323;-70
2023/02/16 00:40:00;;;;;;;42.55;35.22;;;;;;;;;;518179;28;1364;-71
2023/02/16 00:40:16;;;;;;;40.43;34.37;;;;;;;;;;516930;28;1409;-70
2023/02/16 00:40:33;;;;;;;42.13;34.80;;;;;;;;;;519837;28;1406;-70
2023/02/16 00:40:48;;;;;;;44.15;35.53;;;;;;;;;;520276;28;1266;-70
2023/02/16 00:41:03;;;;;;;42.30;34.60;;;;;;;;;;519959;28;1227;-70
2023/02/16 00:42:00;;;;;;;41.35;33.70;;;;;;;;;;519292;28;1003;-70
2023/02/16 00:42:19;;;;;;;38.45;32.78;;;;;;;;;;516369;28;1278;-71
2023/02/16 00:42:35;;;;;;;38.08;32.63;;;;;;;;;;520564;28;1271;-70
2023/02/16 00:42:50;;;;;;;37.40;32.20;;;;;;;;;;517154;28;1469;-70
2023/02/16 00:43:06;;;;;;;40.72;33.80;;;;;;;;;;519396;28;1378;-70
2023/02/16 00:43:24;;;;;;;41.40;34.20;;;;;;;;;;518414;28;1517;-71
2023/02/16 00:43:40;;;;;;;41.03;34.15;;;;;;;;;;517528;28;1267;-71
2023/02/16 00:43:55;;;;;;;39.57;33.37;;;;;;;;;;516361;28;1274;-70
2023/02/16 00:44:35;;;;;;;39.00;32.58;;;;;;;;;;515713;28;1390;-70
2023/02/16 00:44:54;;;;;;;43.80;34.85;;;;;;;;;;519617;28;1165;-70
2023/02/16 00:45:20;;;;;;;38.28;32.47;;;;;;;;;;518561;28;1215;-70
2023/02/16 00:45:36;;;;;;;38.00;32.33;;;;;;;;;;519153;28;1555;-70
2023/02/16 00:45:52;;;;;;;38.35;32.45;;;;;;;;;;520131;28;1438;-70
2023/02/16 00:46:10;;;;;;;38.90;32.45;;;;;;;;;;520826;28;1390;-70
2023/02/16 00:46:26;;;;;;;39.13;32.33;;;;;;;;;;518850;28;1497;-70
2023/02/16 00:46:42;;;;;;;39.97;32.83;;;;;;;;;;518095;28;1223;-71
2023/02/16 00:47:22;;;;;;;41.75;34.33;;;;;;;;;;517198;28;1231;-71
2023/02/16 00:47:40;;;;;;;37.72;32.47;;;;;;;;;;507223;29;1510;-71
2023/02/16 00:47:56;;;;;;;39.03;33.08;;;;;;;;;;509887;28;1552;-71
2023/02/16 00:48:11;;;;;;;38.35;32.90;;;;;;;;;;517779;28;1248;-71
2023/02/16 00:48:26;;;;;;;40.50;33.17;;;;;;;;;;515916;28;1342;-72
2023/02/16 00:48:42;;;;;;;40.60;32.90;;;;;;;;;;514940;28;1329;-71
2023/02/16 00:48:57;;;;;;;39.15;32.90;;;;;;;;;;518300;28;1172;-71
2023/02/16 00:49:18;;;;;;;35.60;31.07;;;;;;;;;;513566;28;1466;-71
2023/02/16 00:49:33;;;;;;;34.13;30.10;;;;;;;;;;515182;28;1310;-70
2023/02/16 00:49:51;;;;;;;36.40;31.30;;;;;;;;;;517046;28;1279;-70
2023/02/16 00:50:21;;;;;;;36.20;30.98;;;;;;;;;;515482;28;1271;-71
2023/02/16 00:50:36;;;;;;;35.58;30.90;;;;;;;;;;514909;28;1267;-71
2023/02/16 00:50:51;;;;;;;35.33;30.77;;;;;;;;;;516791;28;1146;-71
2023/02/16 00:51:07;;;;;;;37.03;31.83;;;;;;;;;;520491;28;1395;-71
2023/02/16 00:51:22;;;;;;;38.13;32.60;;;;;;;;;;521695;28;1309;-71
2023/02/16 00:51:37;;;;;;;38.53;32.80;;;;;;;;;;520645;28;1242;-71
2023/02/16 00:51:53;;;;;;;39.70;33.78;;;;;;;;;;523000;28;1340;-71
2023/02/16 00:52:38;;;;;;;40.95;34.90;;;;;;;;;;519977;28;1397;-71
2023/02/16 00:52:57;;;;;;;42.30;35.05;;;;;;;;;;521404;28;1536;-71
2023/02/16 00:53:13;;;;;;;41.90;34.85;;;;;;;;;;521532;28;1349;-70
2023/02/16 00:53:28;;;;;;;41.13;34.63;;;;;;;;;;522074;28;1223;-71
2023/02/16 00:53:43;;;;;;;38.50;33.07;;;;;;;;;;522422;28;1165;-70
2023/02/16 00:53:58;;;;;;;36.92;31.90;;;;;;;;;;521950;28;1417;-70
2023/02/16 00:54:14;;;;;;;35.83;31.13;;;;;;;;;;520970;28;1518;-71
2023/02/16 00:54:29;;;;;;;35.37;31.20;;;;;;;;;;517742;28;1203;-70
2023/02/16 00:54:44;;;;;;;34.63;30.83;;;;;;;;;;519513;28;1334;-71
2023/02/16 00:55:12;;;;;;;33.65;30.00;;;;;;;;;;519770;28;1262;-70
2023/02/16 00:55:30;;;;;;;33.50;29.52;;;;;;;;;;519202;28;1973;-71
2023/02/16 00:55:46;;;;;;;33.47;29.60;;;;;;;;;;519086;28;1385;-71
2023/02/16 00:56:01;;;;;;;32.80;29.20;;;;;;;;;;521663;28;1258;-71
2023/02/16 00:56:19;;;;;;;34.33;30.33;;;;;;;;;;523470;28;1204;-71
2023/02/16 00:56:37;;;;;;;36.75;31.85;;;;;;;;;;522771;28;1473;-71
2023/02/16 00:56:53;;;;;;;38.83;32.60;;;;;;;;;;522073;28;1402;-71
2023/02/16 00:57:16;;;;;;;39.47;32.80;;;;;;;;;;521451;28;1443;-71
2023/02/16 00:57:36;;;;;;;41.25;34.33;;;;;;;;;;522916;28;1249;-71
2023/02/16 00:58:15;;;;;;;55.75;43.35;;;;;;;;;;518897;28;1533;-71
2023/02/16 00:58:30;;;;;;;47.78;38.55;;;;;;;;;;514985;28;1568;-71
2023/02/16 00:58:47;;;;;;;44.50;36.55;;;;;;;;;;514497;28;1312;-71
2023/02/16 00:59:06;;;;;;;39.47;33.50;;;;;;;;;;516381;28;1113;-71
2023/02/16 00:59:22;;;;;;;39.75;32.85;;;;;;;;;;517683;28;1302;-71
2023/02/16 00:59:37;;;;;;;40.80;33.22;;;;;;;;;;517203;28;1222;-70
2023/02/16 01:00:05;;;;;;;41.07;33.77;;;;;;;;;;516657;28;1200;-71
2023/02/16 01:00:28;;;;;;;40.38;34.28;;;;;;;;;;518584;28;1426;-71
2023/02/16 01:00:53;;;;;;;39.83;33.80;;;;;;;;;;519886;28;1389;-71
2023/02/16 01:01:13;;;;;;;39.88;33.08;;;;;;;;;;519027;28;1425;-70
2023/02/16 01:01:31;;;;;;;36.30;31.35;;;;;;;;;;516061;28;1295;-71
2023/02/16 01:01:50;;;;;;;41.55;34.22;;;;;;;;;;517775;28;1446;-71
2023/02/16 01:02:05;;;;;;;45.63;36.65;;;;;;;;;;516322;28;1336;-71
2023/02/16 01:02:21;;;;;;;42.65;35.47;;;;;;;;;;520430;28;1318;-71
2023/02/16 01:02:36;;;;;;;38.83;33.77;;;;;;;;;;518567;28;1407;-70
2023/02/16 01:02:55;;;;;;;40.70;34.37;;;;;;;;;;517637;28;1201;-70
2023/02/16 01:03:18;;;;;;;41.38;34.22;;;;;;;;;;516027;28;1534;-70
2023/02/16 01:03:34;;;;;;;40.22;33.30;;;;;;;;;;518027;28;1312;-71
2023/02/16 01:03:49;;;;;;;39.22;32.70;;;;;;;;;;516879;28;1492;-70
2023/02/16 01:04:09;;;;;;;38.90;33.20;;;;;;;;;;517399;28;1185;-70
2023/02/16 01:04:24;;;;;;;40.35;34.05;;;;;;;;;;517759;28;1411;-70
2023/02/16 01:04:40;;;;;;;38.92;33.47;;;;;;;;;;517684;28;1510;-71
2023/02/16 01:04:55;;;;;;;38.03;32.57;;;;;;;;;;515949;28;1129;-70
2023/02/16 01:05:11;;;;;;;37.38;31.85;;;;;;;;;;518071;28;1306;-70
2023/02/16 01:05:27;;;;;;;38.25;32.85;;;;;;;;;;519994;28;1234;-70
2023/02/16 01:05:43;;;;;;;40.17;34.25;;;;;;;;;;519186;28;1323;-70
2023/02/16 01:11:08;;;;;;;39.47;33.58;;;;;;;;;;526798;27;1072;-71
2023/02/16 01:11:25;;;;;;;38.80;32.58;;;;;;;;;;522903;28;1154;-70
2023/02/16 01:11:40;;;;;;;38.15;32.03;;;;;;;;;;521420;28;1525;-70
2023/02/16 01:11:56;;;;;;;37.13;31.88;;;;;;;;;;520029;28;1346;-70
2023/02/16 01:12:16;;;;;;;36.77;32.00;;;;;;;;;;519581;28;1212;-70
2023/02/16 01:12:31;;;;;;;38.63;33.55;;;;;;;;;;518578;28;1456;-71
2023/02/16 01:12:46;;;;;;;38.33;33.60;;;;;;;;;;518241;28;1207;-70
2023/02/16 01:13:02;;;;;;;38.45;33.42;;;;;;;;;;519079;28;1283;-71
2023/02/16 01:13:17;;;;;;;38.33;32.93;;;;;;;;;;519682;28;1289;-70
2023/02/16 01:13:38;;;;;;;37.55;32.03;;;;;;;;;;519181;28;1232;-70
2023/02/16 01:13:54;;;;;;;36.25;31.20;;;;;;;;;;514917;28;1620;-70
2023/02/16 01:14:12;;;;;;;38.47;32.20;;;;;;;;;;519751;28;1409;-70
2023/02/16 01:14:30;;;;;;;38.33;32.22;;;;;;;;;;518440;28;1521;-70
2023/02/16 01:14:51;;;;;;;36.95;32.20;;;;;;;;;;515977;28;1373;-70
2023/02/16 01:15:12;;;;;;;40.47;34.55;;;;;;;;;;516353;28;1275;-70
2023/02/16 01:15:28;;;;;;;40.70;34.05;;;;;;;;;;517777;28;1924;-70
2023/02/16 01:15:43;;;;;;;38.23;33.10;;;;;;;;;;518652;28;1425;-70
2023/02/16 01:15:59;;;;;;;37.45;33.15;;;;;;;;;;517160;28;1234;-70
2023/02/16 01:16:21;;;;;;;39.40;34.07;;;;;;;;;;517051;28;1408;-70
2023/02/16 01:16:39;;;;;;;38.33;33.25;;;;;;;;;;518377;28;1377;-70
2023/02/16 01:16:54;;;;;;;35.97;30.95;;;;;;;;;;520642;28;1324;-70
2023/02/16 01:17:10;;;;;;;34.97;30.37;;;;;;;;;;517951;28;1137;-70
2023/02/16 01:17:25;;;;;;;36.08;31.40;;;;;;;;;;520225;28;1321;-70
2023/02/16 01:17:40;;;;;;;39.10;32.57;;;;;;;;;;518547;28;1314;-70
2023/02/16 01:17:56;;;;;;;37.83;32.20;;;;;;;;;;517948;28;1173;-71
2023/02/16 01:18:16;;;;;;;36.58;31.88;;;;;;;;;;515540;28;1383;-71
2023/02/16 01:18:31;;;;;;;37.22;32.00;;;;;;;;;;516945;28;1301;-70
2023/02/16 01:18:47;;;;;;;36.47;31.73;;;;;;;;;;515738;28;1307;-70
2023/02/16 01:19:04;;;;;;;34.72;30.67;;;;;;;;;;516067;28;1366;-71
2023/02/16 01:19:19;;;;;;;35.13;30.08;;;;;;;;;;517205;28;1351;-70
2023/02/16 01:19:34;;;;;;;37.97;31.27;;;;;;;;;;516597;28;1245;-70
2023/02/16 01:19:50;;;;;;;39.80;32.40;;;;;;;;;;517482;28;1292;-70
2023/02/16 01:20:19;;;;;;;39.78;32.53;;;;;;;;;;517097;28;1438;-71
2023/02/16 01:20:35;;;;;;;39.33;32.28;;;;;;;;;;516387;28;1383;-70
2023/02/16 01:20:51;;;;;;;37.35;31.80;;;;;;;;;;518570;28;1659;-70
2023/02/16 01:21:06;;;;;;;35.95;31.75;;;;;;;;;;519740;28;1133;-70
2023/02/16 01:21:22;;;;;;;39.55;33.50;;;;;;;;;;516933;28;1366;-70
2023/02/16 01:21:38;;;;;;;41.30;34.60;;;;;;;;;;515459;28;1195;-70
2023/02/16 01:21:53;;;;;;;40.75;34.40;;;;;;;;;;516969;28;1165;-71
2023/02/16 01:22:08;;;;;;;40.67;33.80;;;;;;;;;;517584;28;1279;-70
2023/02/16 01:22:23;;;;;;;41.20;34.17;;;;;;;;;;517953;28;1082;-70
2023/02/16 01:22:39;;;;;;;41.97;34.87;;;;;;;;;;517230;28;1210;-70
2023/02/16 01:22:54;;;;;;;41.27;34.60;;;;;;;;;;517700;28;1253;-70
2023/02/16 01:23:10;;;;;;;41.55;34.53;;;;;;;;;;516142;28;1309;-70
2023/02/16 01:23:26;;;;;;;40.88;34.05;;;;;;;;;;518612;28;1250;-70
2023/02/16 01:23:41;;;;;;;40.93;34.17;;;;;;;;;;518554;28;1261;-70
2023/02/16 01:23:56;;;;;;;42.47;34.78;;;;;;;;;;518181;28;1243;-70
2023/02/16 01:24:12;;;;;;;42.10;34.20;;;;;;;;;;517156;28;1224;-71
2023/02/16 01:24:27;;;;;;;41.17;33.77;;;;;;;;;;516840;28;1204;-70
2023/02/16 01:24:42;;;;;;;41.17;34.03;;;;;;;;;;514287;28;1286;-70
2023/02/16 01:24:58;;;;;;;42.50;34.53;;;;;;;;;;515435;28;1345;-70
2023/02/16 01:25:14;;;;;;;41.17;33.73;;;;;;;;;;516025;28;1177;-70
2023/02/16 01:25:29;;;;;;;40.35;33.42;;;;;;;;;;513844;28;1409;-70
2023/02/16 01:25:45;;;;;;;43.10;34.23;;;;;;;;;;515066;28;1248;-70
2023/02/16 01:26:00;;;;;;;42.90;34.47;;;;;;;;;;516431;28;1569;-71
2023/02/16 01:26:18;;;;;;;42.50;34.95;;;;;;;;;;520547;28;1272;-70
2023/02/16 01:26:39;;;;;;;42.03;34.58;;;;;;;;;;521511;28;1305;-70
2023/02/16 01:26:55;;;;;;;43.08;34.50;;;;;;;;;;521167;28;1356;-70
2023/02/16 01:27:12;;;;;;;42.28;33.95;;;;;;;;;;521949;28;1161;-70
2023/02/16 01:27:27;;;;;;;41.70;34.25;;;;;;;;;;518177;28;1441;-69
2023/02/16 01:27:43;;;;;;;42.03;34.60;;;;;;;;;;517902;28;1164;-70
2023/02/16 01:27:58;;;;;;;43.75;35.08;;;;;;;;;;515886;28;1230;-70
2023/02/16 01:28:25;;;;;;;42.97;34.30;;;;;;;;;;516220;28;1177;-70
2023/02/16 01:28:40;;;;;;;39.38;32.58;;;;;;;;;;518578;28;1275;-70
2023/02/16 01:28:55;;;;;;;37.47;31.90;;;;;;;;;;516714;28;1186;-69
2023/02/16 01:29:19;;;;;;;39.42;33.35;;;;;;;;;;516723;28;1332;-69
2023/02/16 01:29:34;;;;;;;40.70;33.50;;;;;;;;;;519259;28;1315;-69
2023/02/16 01:29:49;;;;;;;38.27;32.33;;;;;;;;;;518770;28;1176;-70
2023/02/16 01:30:06;;;;;;;38.67;32.53;;;;;;;;;;519691;28;1342;-69
2023/02/16 01:30:23;;;;;;;39.10;32.45;;;;;;;;;;521187;28;1294;-70
2023/02/16 01:30:39;;;;;;;35.85;31.00;;;;;;;;;;516796;28;1590;-70
2023/02/16 01:30:54;;;;;;;34.73;30.53;;;;;;;;;;518969;28;1165;-70
2023/02/16 01:31:11;;;;;;;37.47;32.00;;;;;;;;;;518127;28;1235;-69
2023/02/16 01:31:26;;;;;;;39.97;33.35;;;;;;;;;;519012;28;1213;-69
2023/02/16 01:31:42;;;;;;;38.00;31.73;;;;;;;;;;517349;28;1308;-70
2023/02/16 01:31:57;;;;;;;39.93;32.77;;;;;;;;;;518465;28;1091;-70
2023/02/16 01:32:13;;;;;;;42.50;33.97;;;;;;;;;;518163;28;1236;-69
2023/02/16 01:32:28;;;;;;;39.50;32.30;;;;;;;;;;518295;28;1298;-70
2023/02/16 01:32:50;;;;;;;38.80;32.10;;;;;;;;;;520061;28;1212;-70
2023/02/16 01:33:05;;;;;;;38.25;31.85;;;;;;;;;;521775;28;1080;-70
2023/02/16 01:33:21;;;;;;;36.63;30.80;;;;;;;;;;520089;28;1299;-70
2023/02/16 01:33:36;;;;;;;38.70;32.33;;;;;;;;;;519723;28;1537;-70
2023/02/16 01:33:51;;;;;;;40.38;33.03;;;;;;;;;;519614;28;1321;-71
2023/02/16 01:34:07;;;;;;;40.83;32.90;;;;;;;;;;522387;28;1332;-70
2023/02/16 01:34:24;;;;;;;41.17;33.13;;;;;;;;;;521292;28;1183;-70
2023/02/16 01:34:39;;;;;;;40.67;33.13;;;;;;;;;;522907;28;1141;-70
2023/02/16 01:34:54;;;;;;;41.78;33.75;;;;;;;;;;522651;28;1132;-69
2023/02/16 01:35:12;;;;;;;39.53;33.13;;;;;;;;;;519196;28;1176;-70
2023/02/16 01:35:31;;;;;;;38.35;32.55;;;;;;;;;;519912;28;1973;-70
2023/02/16 01:35:48;;;;;;;36.90;31.75;;;;;;;;;;519657;28;1416;-70
2023/02/16 01:36:04;;;;;;;36.72;31.05;;;;;;;;;;521354;28;1291;-71
2023/02/16 01:36:35;;;;;;;38.08;31.60;;;;;;;;;;522105;28;983;-70
2023/02/16 01:36:50;;;;;;;39.05;32.40;;;;;;;;;;521121;28;1303;-69
2023/02/16 01:37:13;;;;;;;37.60;31.57;;;;;;;;;;520189;28;1239;-71
2023/02/16 01:37:29;;;;;;;35.08;30.25;;;;;;;;;;517991;28;1170;-70
2023/02/16 01:37:44;;;;;;;33.05;29.35;;;;;;;;;;519840;28;1394;-69
2023/02/16 01:37:59;;;;;;;34.07;29.27;;;;;;;;;;519284;28;1220;-70
2023/02/16 01:38:21;;;;;;;33.97;29.27;;;;;;;;;;518762;28;1412;-70
2023/02/16 01:38:36;;;;;;;35.63;30.90;;;;;;;;;;519272;28;1458;-70
2023/02/16 01:38:52;;;;;;;37.33;31.73;;;;;;;;;;518429;28;1357;-70
2023/02/16 01:39:12;;;;;;;36.50;30.83;;;;;;;;;;516144;28;1323;-71
2023/02/16 01:39:27;;;;;;;33.08;28.58;;;;;;;;;;517559;28;1465;-70
2023/02/16 01:39:42;;;;;;;35.13;29.70;;;;;;;;;;515168;28;1247;-70
2023/02/16 01:39:58;;;;;;;35.50;30.25;;;;;;;;;;515112;28;1145;-70
2023/02/16 01:40:42;;;;;;;35.77;30.07;;;;;;;;;;515521;28;1157;-70
2023/02/16 01:41:21;;;;;;;36.97;31.63;;;;;;;;;;516772;28;1515;-70
2023/02/16 01:41:43;;;;;;;38.10;31.52;;;;;;;;;;518915;28;1091;-70
2023/02/16 01:42:34;;;;;;;34.13;29.55;;;;;;;;;;520811;28;1381;-70
2023/02/16 01:42:51;;;;;;;37.13;31.38;;;;;;;;;;520624;28;1321;-71
2023/02/16 01:43:36;;;;;;;38.08;31.65;;;;;;;;;;522408;28;1330;-71
2023/02/16 01:44:03;;;;;;;38.63;31.88;;;;;;;;;;518058;28;1219;-70
2023/02/16 01:44:37;;;;;;;39.15;32.17;;;;;;;;;;520441;28;1226;-71
2023/02/16 01:45:15;;;;;;;40.28;32.90;;;;;;;;;;522160;28;1255;-71
2023/02/16 01:45:34;;;;;;;40.78;32.80;;;;;;;;;;520738;28;1314;-71
2023/02/16 01:46:26;;;;;;;40.90;33.30;;;;;;;;;;521935;28;1400;-71
2023/02/16 01:46:48;;;;;;;45.97;37.15;;;;;;;;;;521643;28;1420;-71
2023/02/16 01:47:14;;;;;;;45.63;36.85;;;;;;;;;;519508;28;1426;-71
2023/02/16 01:47:37;;;;;;;42.47;35.30;;;;;;;;;;517632;28;1944;-71
2023/02/16 01:47:55;;;;;;;40.33;33.42;;;;;;;;;;517218;28;1271;-72
2023/02/16 01:48:24;;;;;;;46.15;36.30;;;;;;;;;;515677;28;1503;-71
2023/02/16 01:48:40;;;;;;;53.00;41.53;;;;;;;;;;518263;28;1374;-71
2023/02/16 01:48:55;;;;;;;55.55;43.47;;;;;;;;;;517427;28;1211;-71
2023/02/16 01:49:15;;;;;;;53.33;42.10;;;;;;;;;;515749;28;1559;-71
2023/02/16 01:49:30;;;;;;;50.15;39.60;;;;;;;;;;515876;28;1263;-72
2023/02/16 01:49:46;;;;;;;48.53;36.97;;;;;;;;;;515550;28;1234;-71
2023/02/16 01:50:15;;;;;;;49.97;37.93;;;;;;;;;;518290;28;1214;-71
2023/02/16 01:50:46;;;;;;;45.70;36.55;;;;;;;;;;518521;28;1501;-71
2023/02/16 01:51:10;;;;;;;42.95;34.47;;;;;;;;;;522570;28;1271;-71
2023/02/16 01:51:50;;;;;;;46.33;35.53;;;;;;;;;;522264;28;1385;-70
2023/02/16 01:52:20;;;;;;;45.90;35.90;;;;;;;;;;522355;28;1495;-68
2023/02/16 01:52:42;;;;;;;45.78;36.15;;;;;;;;;;521910;28;1404;-71
2023/02/16 01:53:16;;;;;;;46.25;36.47;;;;;;;;;;519073;28;1374;-71
2023/02/16 01:53:40;;;;;;;46.13;35.72;;;;;;;;;;517314;28;1547;-71
2023/02/16 01:54:04;;;;;;;43.63;35.38;;;;;;;;;;518163;28;1704;-71
2023/02/16 01:54:41;;;;;;;38.35;32.15;;;;;;;;;;517887;28;1288;-71
2023/02/16 01:55:05;;;;;;;38.85;32.63;;;;;;;;;;518904;28;1326;-72
2023/02/16 01:55:29;;;;;;;39.22;32.50;;;;;;;;;;518291;28;1417;-71
2023/02/16 01:55:48;;;;;;;39.78;33.05;;;;;;;;;;517374;28;1382;-71
2023/02/16 01:56:09;;;;;;;41.03;33.33;;;;;;;;;;517937;28;1023;-71
2023/02/16 01:56:38;;;;;;;38.17;31.83;;;;;;;;;;518272;28;1342;-71
2023/02/16 01:57:02;;;;;;;42.50;33.83;;;;;;;;;;516300;28;1403;-72
2023/02/16 01:57:26;;;;;;;40.95;33.72;;;;;;;;;;517864;28;1453;-71
2023/02/16 01:58:02;;;;;;;41.67;34.65;;;;;;;;;;521309;28;1539;-71
2023/02/16 01:58:37;;;;;;;41.75;33.83;;;;;;;;;;521317;28;1390;-71
2023/02/16 01:58:55;;;;;;;41.17;33.88;;;;;;;;;;518397;28;1384;-71
2023/02/16 01:59:22;;;;;;;42.30;34.45;;;;;;;;;;519930;28;1282;-71
2023/02/16 01:59:57;;;;;;;42.58;34.45;;;;;;;;;;518312;28;1391;-71
2023/02/16 02:00:48;;;;;;;42.22;34.20;;;;;;;;;;518680;28;1426;-71
2023/02/16 02:01:03;;;;;;;40.50;33.65;;;;;;;;;;519324;28;1102;-72
2023/02/16 02:01:34;;;;;;;39.63;33.47;;;;;;;;;;517231;28;1303;-71
2023/02/16 02:01:52;;;;;;;41.72;33.28;;;;;;;;;;520631;28;1622;-71